KIPL/IPL METAR and TAF weather

Enter ICAO airport designator
Station Type Date Time Source
KIPL METAR 2021/03/06 01:53 UTC NOAA

KIPL 060153Z AUTO 23004KT 10SM CLR 23/01 A2994 RMK AO2 SLP140 T02330006


Station Type Date Time Source
KIPL Decoded METAR 2021/03/06 01:53 UTC NOAA

Imperial, Imperial County Airport, CA, United States (KIPL) 32-50-03N 115-34-43W -15M
Mar 05, 2021 - 08:53 PM EST / 2021.03.06 0153 UTC
Wind: from the SW (230 degrees) at 5 MPH (4 KT):0
Visibility: 10 mile(s):0
Sky conditions: clear
Temperature: 73.9 F (23.3 C)
Dew Point: 33.1 F (0.6 C)
Relative Humidity: 22%
Pressure (altimeter): 29.94 in. Hg (1013 hPa)
ob: KIPL 060153Z AUTO 23004KT 10SM CLR 23/01 A2994 RMK AO2 SLP140 T02330006
cycle: 2

Station Type Date Time Source
KIPL TAF 2021/03/05 18:33 UTC NOAA

TAF KIPL 051731Z 0518/0618 28005KT P6SM SKC

Example: see airport list